createdAt,value
2018-03-31T04:51:00.391Z,67.1
2018-03-31T04:51:50.830Z,67.1
2018-03-31T04:52:40.823Z,67.1
2018-03-31T04:53:30.460Z,67.1
2018-03-31T04:54:20.903Z,67.1
2018-03-31T04:55:11.223Z,67.1
2018-03-31T04:56:00.343Z,67.1
2018-03-31T04:56:50.696Z,67.1
2018-03-31T04:57:41.155Z,67.1
2018-03-31T04:58:31.218Z,67.1
2018-03-31T04:59:21.385Z,67
2018-03-31T05:00:11.417Z,67
2018-03-31T05:01:00.710Z,67
2018-03-31T05:01:52.067Z,67
2018-03-31T05:02:41.497Z,67
2018-03-31T05:03:31.186Z,67
2018-03-31T05:04:21.158Z,67
2018-03-31T05:05:11.252Z,66.9
2018-03-31T05:06:02.340Z,66.9
2018-03-31T05:06:51.607Z,66.9
2018-03-31T05:07:41.652Z,66.9
2018-03-31T05:08:31.645Z,66.9
2018-03-31T05:09:21.421Z,66.9
2018-03-31T05:10:11.884Z,66.9
2018-03-31T05:11:01.612Z,66.9
2018-03-31T05:11:51.990Z,66.9
2018-03-31T05:12:42.311Z,66.9
2018-03-31T05:13:32.279Z,66.9
2018-03-31T05:14:22.073Z,66.9
2018-03-31T05:15:12.404Z,66.9
2018-03-31T05:16:02.307Z,66.8
2018-03-31T05:16:52.526Z,66.9
2018-03-31T05:17:42.478Z,66.8
2018-03-31T05:18:32.265Z,66.8
2018-03-31T05:19:22.131Z,66.8
2018-03-31T05:20:12.396Z,66.8
2018-03-31T05:21:02.923Z,66.8
2018-03-31T05:21:53.538Z,66.8
2018-03-31T05:22:42.745Z,66.8
2018-03-31T05:23:32.632Z,66.8
2018-03-31T05:24:23.401Z,66.8
2018-03-31T05:25:13.126Z,66.8
2018-03-31T05:26:03.181Z,66.8
2018-03-31T05:26:53.253Z,66.7
2018-03-31T05:27:42.726Z,66.8
2018-03-31T05:28:33.581Z,66.8
2018-03-31T05:29:23.127Z,66.7
2018-03-31T05:30:13.587Z,66.7
2018-03-31T05:31:03.848Z,66.7
2018-03-31T05:31:53.403Z,66.7
2018-03-31T05:32:43.184Z,66.7
2018-03-31T05:33:33.552Z,66.6
2018-03-31T05:34:23.522Z,66.6
2018-03-31T05:35:14.221Z,66.6
2018-03-31T05:36:03.848Z,66.6
2018-03-31T05:36:53.973Z,66.6
2018-03-31T05:37:43.830Z,66.6
2018-03-31T05:38:34.407Z,66.6
2018-03-31T05:39:24.341Z,66.6
2018-03-31T05:40:13.927Z,66.6
2018-03-31T05:41:04.003Z,66.6
2018-03-31T05:41:54.440Z,66.6
2018-03-31T05:42:44.497Z,66.6
2018-03-31T05:43:34.557Z,66.6
2018-03-31T05:44:24.509Z,66.6
2018-03-31T05:45:13.914Z,66.6
2018-03-31T05:46:04.447Z,66.5
2018-03-31T05:46:55.023Z,66.5
2018-03-31T05:47:44.272Z,66.5
2018-03-31T05:48:34.358Z,66.5
2018-03-31T05:49:25.257Z,66.5
2018-03-31T05:50:15.126Z,66.5
2018-03-31T05:51:05.572Z,66.4
2018-03-31T05:51:55.379Z,66.4
2018-03-31T05:52:45.160Z,66.4
2018-03-31T05:53:35.676Z,66.4
2018-03-31T05:54:24.872Z,66.4
2018-03-31T05:55:14.903Z,66.4
2018-03-31T05:56:05.680Z,66.4
2018-03-31T05:56:55.111Z,66.4
2018-03-31T05:57:45.334Z,66.4
2018-03-31T05:58:35.342Z,66.4
2018-03-31T05:59:25.652Z,66.4
2018-03-31T06:00:15.194Z,66.4
2018-03-31T06:01:05.326Z,66.3
2018-03-31T06:01:55.468Z,66.3
2018-03-31T06:02:45.754Z,66.4
2018-03-31T06:03:35.655Z,66.3
2018-03-31T06:04:25.768Z,66.3
2018-03-31T06:05:16.121Z,66.3
2018-03-31T06:06:06.404Z,66.3
2018-03-31T06:06:55.470Z,66.3
2018-03-31T06:07:45.933Z,66.3
2018-03-31T06:08:35.799Z,66.3
2018-03-31T06:09:26.141Z,66.3
2018-03-31T06:10:16.379Z,66.3
2018-03-31T06:11:05.768Z,66.3
2018-03-31T06:11:55.641Z,66.3
2018-03-31T06:12:46.661Z,66.3
2018-03-31T06:13:36.430Z,66.3
2018-03-31T06:14:26.489Z,66.3
2018-03-31T06:15:16.363Z,66.2
2018-03-31T06:16:07.094Z,66.2
2018-03-31T06:16:56.676Z,66.2
2018-03-31T06:17:46.460Z,66.2
2018-03-31T06:18:36.946Z,66.1
2018-03-31T06:19:27.270Z,66.1
2018-03-31T06:20:17.463Z,66.1
2018-03-31T06:21:07.122Z,66.1
2018-03-31T06:21:57.908Z,66.1
2018-03-31T06:22:47.723Z,66.1
2018-03-31T06:23:37.772Z,66.1
2018-03-31T06:24:27.518Z,66.1
2018-03-31T06:25:17.288Z,66.1
2018-03-31T06:26:07.541Z,66.1
2018-03-31T06:26:57.895Z,66.1
2018-03-31T06:27:47.723Z,66.1
2018-03-31T06:28:36.725Z,66.1
2018-03-31T06:29:27.772Z,66.1
2018-03-31T06:30:18.401Z,66
2018-03-31T06:31:08.478Z,66
2018-03-31T06:31:58.823Z,66
2018-03-31T06:32:48.636Z,66
2018-03-31T06:33:38.352Z,66
2018-03-31T06:34:29.015Z,66
2018-03-31T06:35:18.782Z,66
2018-03-31T06:36:09.098Z,66
2018-03-31T06:36:58.625Z,65.9
2018-03-31T06:37:48.687Z,65.9
2018-03-31T06:38:39.302Z,65.9
2018-03-31T06:39:28.210Z,65.9
2018-03-31T06:40:19.156Z,65.9
2018-03-31T06:41:08.723Z,65.9
2018-03-31T06:41:58.382Z,65.9
2018-03-31T06:42:48.834Z,65.9
2018-03-31T06:43:38.325Z,65.9
2018-03-31T06:44:28.764Z,65.9
2018-03-31T06:45:18.842Z,65.9
2018-03-31T06:46:09.250Z,65.9
2018-03-31T06:46:58.862Z,65.9
2018-03-31T06:47:48.010Z,65.9
2018-03-31T06:48:38.547Z,65.8
2018-03-31T06:49:29.324Z,65.8
2018-03-31T06:50:18.804Z,65.8
2018-03-31T06:51:09.608Z,65.8
2018-03-31T06:51:59.411Z,65.8
2018-03-31T06:52:49.413Z,65.8
2018-03-31T06:53:39.529Z,65.8
2018-03-31T06:54:29.598Z,65.8
2018-03-31T06:55:19.744Z,65.8
2018-03-31T06:56:08.810Z,65.8
2018-03-31T06:56:59.173Z,65.8
2018-03-31T06:57:49.821Z,65.8
2018-03-31T06:58:39.888Z,65.8
2018-03-31T06:59:30.321Z,65.8
2018-03-31T07:00:19.441Z,65.8
2018-03-31T07:01:09.686Z,65.7
2018-03-31T07:01:59.719Z,65.7
2018-03-31T07:02:49.805Z,65.7
2018-03-31T07:03:39.845Z,65.7
2018-03-31T07:04:29.833Z,65.7
2018-03-31T07:05:19.968Z,65.7
2018-03-31T07:06:10.805Z,65.7
2018-03-31T07:07:00.787Z,65.7
2018-03-31T07:07:50.426Z,65.6
2018-03-31T07:08:40.877Z,65.6
2018-03-31T07:09:30.464Z,65.6
2018-03-31T07:10:20.305Z,65.6
2018-03-31T07:11:10.497Z,65.6
2018-03-31T07:12:01.145Z,65.6
2018-03-31T07:12:50.722Z,65.6
2018-03-31T07:13:41.235Z,65.6
2018-03-31T07:14:30.618Z,65.6
2018-03-31T07:15:21.202Z,65.6
2018-03-31T07:16:11.155Z,65.6
2018-03-31T07:17:01.663Z,65.6
2018-03-31T07:17:51.550Z,65.6
2018-03-31T07:18:41.145Z,65.5
2018-03-31T07:19:31.130Z,65.5
2018-03-31T07:20:22.009Z,65.5
2018-03-31T07:21:11.746Z,65.5
2018-03-31T07:22:01.179Z,65.5
2018-03-31T07:22:51.159Z,65.5
2018-03-31T07:23:41.302Z,65.5
2018-03-31T07:24:31.864Z,65.5
2018-03-31T07:25:21.610Z,65.4
2018-03-31T07:26:11.868Z,65.4
2018-03-31T07:27:01.961Z,65.4
2018-03-31T07:27:52.316Z,65.4
2018-03-31T07:28:42.383Z,65.4
2018-03-31T07:29:31.442Z,65.4
2018-03-31T07:30:21.876Z,65.4
2018-03-31T07:31:11.769Z,65.4
2018-03-31T07:32:02.506Z,65.4
2018-03-31T07:32:52.666Z,65.4
2018-03-31T07:33:42.436Z,65.4
2018-03-31T07:34:32.792Z,65.4
2018-03-31T07:35:22.571Z,65.4
2018-03-31T07:36:12.670Z,65.4
2018-03-31T07:37:02.954Z,65.4
2018-03-31T07:37:53.273Z,65.3
2018-03-31T07:38:43.693Z,65.3
2018-03-31T07:39:33.154Z,65.3
2018-03-31T07:40:23.465Z,65.3
2018-03-31T07:41:13.545Z,65.3
2018-03-31T07:42:03.329Z,65.3
2018-03-31T07:42:53.676Z,65.3
2018-03-31T07:43:44.004Z,65.3
2018-03-31T07:44:33.500Z,65.3
2018-03-31T07:45:23.598Z,65.3
2018-03-31T07:46:13.912Z,65.3
2018-03-31T07:47:03.678Z,65.3
2018-03-31T07:47:54.064Z,65.3
2018-03-31T07:48:43.529Z,65.3
2018-03-31T07:49:34.162Z,65.3
2018-03-31T07:50:23.655Z,65.2
2018-03-31T07:51:14.306Z,65.2
2018-03-31T07:52:05.039Z,65.2
2018-03-31T07:52:54.393Z,65.2
2018-03-31T07:53:43.882Z,65.2
2018-03-31T07:54:34.875Z,65.2
2018-03-31T07:55:24.586Z,65.2
2018-03-31T07:56:14.632Z,65.1
2018-03-31T07:57:04.223Z,65.1
2018-03-31T07:57:54.125Z,65.1
2018-03-31T07:58:45.075Z,65.1
2018-03-31T07:59:34.820Z,65.1
2018-03-31T08:00:24.866Z,65.1
2018-03-31T08:01:14.750Z,65.1
2018-03-31T08:02:04.608Z,65.1
2018-03-31T08:02:54.884Z,65.1
2018-03-31T08:03:45.148Z,65.1
2018-03-31T08:04:34.514Z,65.1
2018-03-31T08:05:25.334Z,65.1
2018-03-31T08:06:15.330Z,65.1
2018-03-31T08:07:05.364Z,65.1
2018-03-31T08:07:55.002Z,65
2018-03-31T08:08:45.022Z,65
2018-03-31T08:09:35.366Z,65
2018-03-31T08:10:25.046Z,65
2018-03-31T08:11:15.481Z,65
2018-03-31T08:12:05.742Z,65
2018-03-31T08:12:56.159Z,65
2018-03-31T08:13:46.323Z,64.9
2018-03-31T08:14:36.744Z,64.9
2018-03-31T08:15:26.298Z,64.9
2018-03-31T08:16:15.455Z,64.9
2018-03-31T08:17:06.111Z,64.9
2018-03-31T08:17:56.798Z,64.9
2018-03-31T08:18:45.748Z,64.9
2018-03-31T08:19:35.682Z,64.9
2018-03-31T08:20:26.158Z,64.9
2018-03-31T08:21:15.713Z,64.9
2018-03-31T08:22:05.891Z,64.9
2018-03-31T08:22:56.644Z,64.9
2018-03-31T08:23:46.896Z,64.9
2018-03-31T08:24:36.635Z,64.9
2018-03-31T08:25:25.725Z,64.9
2018-03-31T08:26:16.518Z,64.8
2018-03-31T08:27:06.571Z,64.9
2018-03-31T08:27:56.623Z,64.8
2018-03-31T08:28:47.233Z,64.8
2018-03-31T08:29:37.572Z,64.8
2018-03-31T08:30:28.161Z,64.8
2018-03-31T08:31:17.982Z,64.8
2018-03-31T08:32:07.740Z,64.8
2018-03-31T08:32:58.105Z,64.8
2018-03-31T08:33:47.926Z,64.8
2018-03-31T08:34:38.261Z,64.8
2018-03-31T08:35:27.742Z,64.8
2018-03-31T08:36:18.391Z,64.8
2018-03-31T08:37:08.160Z,64.8
2018-03-31T08:37:58.245Z,64.8
2018-03-31T08:38:48.534Z,64.7
2018-03-31T08:39:38.595Z,64.7
2018-03-31T08:40:28.082Z,64.7
2018-03-31T08:41:18.139Z,64.7
2018-03-31T08:42:08.517Z,64.7
2018-03-31T08:42:58.561Z,64.7
2018-03-31T08:43:48.925Z,64.7
2018-03-31T08:44:38.715Z,64.7
2018-03-31T08:45:28.742Z,64.6
2018-03-31T08:46:19.127Z,64.6
2018-03-31T08:47:10.324Z,64.6
2018-03-31T08:47:58.669Z,64.6
2018-03-31T08:48:49.041Z,64.6
2018-03-31T08:49:39.311Z,64.6
2018-03-31T08:50:29.112Z,64.6
2018-03-31T08:51:19.526Z,64.6
2018-03-31T08:52:09.247Z,64.6
2018-03-31T08:52:59.301Z,64.6
2018-03-31T08:53:49.356Z,64.6
2018-03-31T08:54:39.856Z,64.6
2018-03-31T08:55:29.493Z,64.6
2018-03-31T08:56:19.858Z,64.6
2018-03-31T08:57:09.367Z,64.5
2018-03-31T08:57:59.124Z,64.6
2018-03-31T08:58:49.518Z,64.5
2018-03-31T08:59:39.801Z,64.5
2018-03-31T09:00:30.159Z,64.5
2018-03-31T09:01:19.700Z,64.5
2018-03-31T09:02:10.248Z,64.5
2018-03-31T09:03:00.319Z,64.5
2018-03-31T09:03:50.262Z,64.4
2018-03-31T09:04:40.443Z,64.5
2018-03-31T09:05:30.243Z,64.4
2018-03-31T09:06:20.546Z,64.4
2018-03-31T09:07:10.613Z,64.4
2018-03-31T09:08:00.479Z,64.4
2018-03-31T09:08:50.540Z,64.4
2018-03-31T09:09:40.803Z,64.4
2018-03-31T09:10:30.122Z,64.4
2018-03-31T09:11:20.685Z,64.4
2018-03-31T09:12:10.986Z,64.4
2018-03-31T09:13:01.125Z,64.4
2018-03-31T09:13:51.105Z,64.4
2018-03-31T09:14:40.900Z,64.4
2018-03-31T09:15:30.298Z,64.3
2018-03-31T09:16:20.075Z,64.3
2018-03-31T09:17:10.548Z,64.3
2018-03-31T09:18:01.162Z,64.3
2018-03-31T09:18:50.771Z,64.3
2018-03-31T09:19:40.715Z,64.3
2018-03-31T09:20:30.595Z,64.3
2018-03-31T09:21:21.000Z,64.3
2018-03-31T09:22:10.053Z,64.3
2018-03-31T09:23:00.219Z,64.3
2018-03-31T09:23:50.422Z,64.3
2018-03-31T09:24:44.448Z,64.3
2018-03-31T09:25:30.482Z,64.3
2018-03-31T09:26:20.602Z,64.3
2018-03-31T09:27:11.980Z,64.3
2018-03-31T09:28:01.115Z,64.3
2018-03-31T09:28:50.893Z,64.2
2018-03-31T09:29:41.560Z,64.3
2018-03-31T09:30:32.113Z,64.2
2018-03-31T09:31:21.494Z,64.3
2018-03-31T09:32:11.667Z,64.2
2018-03-31T09:33:01.765Z,64.2
2018-03-31T09:33:52.046Z,64.2
2018-03-31T09:34:41.334Z,64.2
2018-03-31T09:35:31.475Z,64.2
2018-03-31T09:36:22.045Z,64.1
2018-03-31T09:37:11.814Z,64.1
2018-03-31T09:38:01.692Z,64.1
2018-03-31T09:38:52.432Z,64.1
2018-03-31T09:39:41.912Z,64.1
2018-03-31T09:40:30.985Z,64.1
2018-03-31T09:41:22.040Z,64.1
2018-03-31T09:42:12.184Z,64.1
2018-03-31T09:43:02.281Z,64.1
2018-03-31T09:43:52.593Z,64.1
2018-03-31T09:44:42.337Z,64.1
2018-03-31T09:45:32.134Z,64.1
2018-03-31T09:46:23.159Z,64.1
2018-03-31T09:47:13.358Z,64.1
2018-03-31T09:48:02.806Z,64
2018-03-31T09:48:51.993Z,64
2018-03-31T09:49:43.046Z,64
2018-03-31T09:50:32.798Z,64
2018-03-31T09:51:22.450Z,64
2018-03-31T09:52:13.773Z,64
2018-03-31T09:53:02.387Z,64
2018-03-31T09:53:52.660Z,63.9
2018-03-31T09:54:42.799Z,63.9
2018-03-31T09:55:33.113Z,63.9
2018-03-31T09:56:23.407Z,63.9
2018-03-31T09:57:13.181Z,63.9
2018-03-31T09:58:03.024Z,63.9
2018-03-31T09:58:53.746Z,63.9
2018-03-31T09:59:42.780Z,63.9
2018-03-31T10:00:33.915Z,63.9
2018-03-31T10:01:23.503Z,63.9
2018-03-31T10:02:13.930Z,63.9
2018-03-31T10:03:03.896Z,63.9
2018-03-31T10:03:53.974Z,63.9
2018-03-31T10:04:43.437Z,63.9
2018-03-31T10:05:33.790Z,63.9
2018-03-31T10:06:23.353Z,63.9
2018-03-31T10:07:14.229Z,63.8
2018-03-31T10:08:02.909Z,63.8
2018-03-31T10:08:54.332Z,63.8
2018-03-31T10:09:44.257Z,63.8
2018-03-31T10:10:33.972Z,63.8
2018-03-31T10:11:24.225Z,63.8
2018-03-31T10:12:14.081Z,63.8
2018-03-31T10:13:04.354Z,63.8
2018-03-31T10:13:55.263Z,63.8
2018-03-31T10:14:44.491Z,63.8
2018-03-31T10:15:34.260Z,63.8
2018-03-31T10:16:24.729Z,63.8
2018-03-31T10:17:14.749Z,63.8
2018-03-31T10:18:04.134Z,63.8
2018-03-31T10:18:55.100Z,63.8
2018-03-31T10:19:44.851Z,63.7
2018-03-31T10:20:35.606Z,63.8
2018-03-31T10:21:24.968Z,63.7
2018-03-31T10:22:15.161Z,63.7
2018-03-31T10:23:04.591Z,63.7
2018-03-31T10:23:55.541Z,63.7
2018-03-31T10:24:46.103Z,63.7
2018-03-31T10:25:35.187Z,63.7
2018-03-31T10:26:25.356Z,63.6
2018-03-31T10:27:15.408Z,63.6
2018-03-31T10:28:05.297Z,63.6
2018-03-31T10:28:55.538Z,63.6
2018-03-31T10:29:45.598Z,63.6
2018-03-31T10:30:35.746Z,63.6
2018-03-31T10:31:26.138Z,63.6
2018-03-31T10:32:15.495Z,63.6
2018-03-31T10:33:05.840Z,63.6
2018-03-31T10:33:56.095Z,63.6
2018-03-31T10:34:45.133Z,63.6
2018-03-31T10:35:36.703Z,63.6
2018-03-31T10:36:26.508Z,63.6
2018-03-31T10:37:15.656Z,63.6
2018-03-31T10:38:06.317Z,63.6
2018-03-31T10:38:56.581Z,63.6
2018-03-31T10:39:46.444Z,63.5
2018-03-31T10:40:36.749Z,63.5
2018-03-31T10:41:25.691Z,63.5
2018-03-31T10:42:16.437Z,63.5
2018-03-31T10:43:06.103Z,63.5
2018-03-31T10:43:57.265Z,63.4
2018-03-31T10:44:46.728Z,63.5
2018-03-31T10:45:37.183Z,63.4
2018-03-31T10:46:27.095Z,63.4
2018-03-31T10:47:17.208Z,63.4
2018-03-31T10:48:06.962Z,63.4
2018-03-31T10:48:57.415Z,63.4
2018-03-31T10:49:47.372Z,63.4
2018-03-31T10:50:37.532Z,63.4
2018-03-31T10:51:26.884Z,63.4
2018-03-31T10:52:17.857Z,63.4
2018-03-31T10:53:07.245Z,63.4
2018-03-31T10:53:57.785Z,63.4
2018-03-31T10:54:47.583Z,63.4
2018-03-31T10:55:37.242Z,63.4
2018-03-31T10:56:28.214Z,63.4
2018-03-31T10:57:18.540Z,63.4
2018-03-31T10:58:08.916Z,63.4
2018-03-31T10:58:57.874Z,63.3
2018-03-31T10:59:48.297Z,63.3
2018-03-31T11:00:38.217Z,63.3
2018-03-31T11:01:27.266Z,63.3
2018-03-31T11:02:17.844Z,63.3
2018-03-31T11:03:08.084Z,63.3
2018-03-31T11:03:58.228Z,63.3
2018-03-31T11:04:48.035Z,63.3
2018-03-31T11:05:38.966Z,63.3
2018-03-31T11:06:28.140Z,63.3
2018-03-31T11:07:18.512Z,63.3
2018-03-31T11:08:08.472Z,63.3
2018-03-31T11:08:59.133Z,63.3
2018-03-31T11:09:48.087Z,63.2
2018-03-31T11:10:38.822Z,63.2
2018-03-31T11:11:29.018Z,63.3
2018-03-31T11:12:18.788Z,63.2
2018-03-31T11:13:09.174Z,63.2
2018-03-31T11:13:58.924Z,63.2
2018-03-31T11:14:49.531Z,63.2
2018-03-31T11:15:39.191Z,63.2
2018-03-31T11:16:29.383Z,63.2
2018-03-31T11:17:19.503Z,63.2
2018-03-31T11:18:09.811Z,63.2
2018-03-31T11:18:59.664Z,63.1
2018-03-31T11:19:49.136Z,63.1
2018-03-31T11:20:39.012Z,63.1
2018-03-31T11:21:29.138Z,63.1
2018-03-31T11:22:19.313Z,63.1
2018-03-31T11:23:09.466Z,63.1
2018-03-31T11:23:59.385Z,63.1
2018-03-31T11:24:49.801Z,63.1
2018-03-31T11:25:40.355Z,63.1
2018-03-31T11:26:29.550Z,63.1
2018-03-31T11:27:20.491Z,63.1
2018-03-31T11:28:10.124Z,63.1
2018-03-31T11:29:00.611Z,63.1
2018-03-31T11:29:50.909Z,63.1
2018-03-31T11:30:39.937Z,63.1
2018-03-31T11:31:29.735Z,63.1
2018-03-31T11:32:20.898Z,63.1
2018-03-31T11:33:10.347Z,63.1
2018-03-31T11:34:00.667Z,63.2
2018-03-31T11:34:50.461Z,63.3
2018-03-31T11:35:40.994Z,63.3
2018-03-31T11:36:30.109Z,63.4
2018-03-31T11:37:20.139Z,63.4
2018-03-31T11:38:11.085Z,63.5
2018-03-31T11:39:00.562Z,63.6
2018-03-31T11:39:50.817Z,63.6
2018-03-31T11:40:40.712Z,63.7
2018-03-31T11:41:30.731Z,63.8
2018-03-31T11:42:21.132Z,63.8
2018-03-31T11:43:09.879Z,63.9
2018-03-31T11:44:01.507Z,63.9
2018-03-31T11:44:51.509Z,63.9
2018-03-31T11:45:41.666Z,63.9
2018-03-31T11:46:30.934Z,64
2018-03-31T11:47:21.774Z,64.1
2018-03-31T11:48:12.011Z,64.1
2018-03-31T11:49:01.426Z,64.1
2018-03-31T11:49:52.153Z,64.2
2018-03-31T11:50:41.627Z,64.2
2018-03-31T11:51:31.501Z,64.3
2018-03-31T11:52:22.425Z,64.3
2018-03-31T11:53:12.401Z,64.4
2018-03-31T11:54:02.159Z,64.4
2018-03-31T11:54:51.531Z,64.4
2018-03-31T11:55:42.402Z,64.4
2018-03-31T11:56:31.861Z,64.5
2018-03-31T11:57:22.046Z,64.5
2018-03-31T11:58:12.614Z,64.5
2018-03-31T11:59:02.059Z,64.5
2018-03-31T11:59:52.617Z,64.5
2018-03-31T12:00:43.328Z,64.5
2018-03-31T12:01:32.546Z,64.5
2018-03-31T12:02:22.320Z,64.6
2018-03-31T12:03:12.568Z,64.6
2018-03-31T12:04:03.071Z,64.6
2018-03-31T12:04:53.025Z,64.6
2018-03-31T12:05:42.453Z,64.7
2018-03-31T12:06:32.938Z,64.8
2018-03-31T12:07:23.273Z,64.8
2018-03-31T12:08:13.040Z,64.9
2018-03-31T12:09:03.206Z,64.9
2018-03-31T12:09:53.375Z,65
2018-03-31T12:10:42.845Z,65.1
2018-03-31T12:11:33.503Z,65.1
2018-03-31T12:12:23.264Z,65.2
2018-03-31T12:13:13.635Z,65.3
2018-03-31T12:14:03.193Z,65.3
2018-03-31T12:14:53.838Z,65.4
2018-03-31T12:15:43.307Z,65.4
2018-03-31T12:16:34.262Z,65.4
2018-03-31T12:17:24.497Z,65.4
2018-03-31T12:18:14.001Z,65.5
2018-03-31T12:19:03.837Z,65.5
2018-03-31T12:19:53.517Z,65.6
2018-03-31T12:20:44.203Z,65.7
2018-03-31T12:21:33.945Z,65.7
2018-03-31T12:22:23.702Z,65.7
2018-03-31T12:23:14.155Z,65.8
2018-03-31T12:24:04.789Z,65.8
2018-03-31T12:24:54.192Z,65.8
2018-03-31T12:25:43.760Z,65.9
2018-03-31T12:26:34.584Z,65.9
2018-03-31T12:27:25.247Z,65.9
2018-03-31T12:28:14.346Z,66
2018-03-31T12:29:04.319Z,66
2018-03-31T12:29:54.676Z,66.1
2018-03-31T12:30:45.254Z,66.1
2018-03-31T12:31:35.097Z,66.1
2018-03-31T12:32:24.466Z,66.2
2018-03-31T12:33:14.924Z,66.2
2018-03-31T12:34:04.370Z,66.2
2018-03-31T12:34:54.862Z,66.3
2018-03-31T12:35:44.806Z,66.3
2018-03-31T12:36:34.586Z,66.3
2018-03-31T12:37:25.212Z,66.4
2018-03-31T12:38:15.196Z,66.4
2018-03-31T12:39:06.154Z,66.4
2018-03-31T12:39:55.909Z,66.4
2018-03-31T12:40:45.697Z,66.4
2018-03-31T12:41:35.442Z,66.4
2018-03-31T12:42:25.704Z,66.5
2018-03-31T12:43:15.778Z,66.5
2018-03-31T12:44:05.030Z,66.6
2018-03-31T12:44:56.499Z,66.6
2018-03-31T12:45:45.971Z,66.6
2018-03-31T12:46:36.643Z,66.6
2018-03-31T12:47:26.142Z,66.6
2018-03-31T12:48:16.782Z,66.7
2018-03-31T12:49:06.038Z,66.7
2018-03-31T12:49:57.113Z,66.8
2018-03-31T12:50:47.260Z,66.8
2018-03-31T12:51:37.084Z,66.8
2018-03-31T12:52:26.725Z,66.8
2018-03-31T12:53:16.017Z,66.8
2018-03-31T12:54:06.506Z,66.8
2018-03-31T12:54:56.431Z,66.8
2018-03-31T12:55:46.840Z,66.8
2018-03-31T12:56:36.866Z,66.8
2018-03-31T12:57:27.834Z,66.8
2018-03-31T12:58:16.382Z,66.8
2018-03-31T12:59:07.437Z,66.8
2018-03-31T12:59:57.125Z,66.8
2018-03-31T13:00:47.450Z,66.8
2018-03-31T13:01:37.532Z,66.8
2018-03-31T13:02:26.669Z,66.8
2018-03-31T13:03:17.050Z,66.8
2018-03-31T13:04:07.683Z,66.8
2018-03-31T13:04:57.224Z,66.8
2018-03-31T13:05:46.864Z,66.8
2018-03-31T13:06:37.397Z,66.9
2018-03-31T13:07:28.064Z,66.9
2018-03-31T13:08:17.562Z,66.9
2018-03-31T13:09:07.242Z,66.9
2018-03-31T13:09:58.137Z,66.9
2018-03-31T13:10:47.641Z,66.9
2018-03-31T13:11:37.806Z,66.9
2018-03-31T13:12:28.333Z,66.9
2018-03-31T13:13:18.101Z,66.9
2018-03-31T13:14:08.254Z,66.9
2018-03-31T13:14:57.952Z,66.9
2018-03-31T13:15:47.906Z,66.9
2018-03-31T13:16:37.947Z,66.9
2018-03-31T13:17:28.746Z,66.9
2018-03-31T13:18:18.574Z,66.9
2018-03-31T13:19:08.439Z,66.9
2018-03-31T13:19:58.176Z,66.9
2018-03-31T13:20:47.990Z,66.9
2018-03-31T13:21:39.313Z,66.9
2018-03-31T13:22:28.184Z,66.9
2018-03-31T13:23:18.889Z,66.9
2018-03-31T13:24:09.007Z,66.9
2018-03-31T13:24:59.059Z,66.9
2018-03-31T13:25:49.080Z,66.9
2018-03-31T13:26:38.408Z,66.9
2018-03-31T13:27:29.280Z,66.9
2018-03-31T13:28:19.849Z,66.9
2018-03-31T13:29:09.328Z,66.9
2018-03-31T13:29:58.776Z,66.9
2018-03-31T13:30:48.970Z,66.9
2018-03-31T13:31:39.483Z,66.9
2018-03-31T13:32:29.278Z,66.9
2018-03-31T13:33:20.299Z,66.9
2018-03-31T13:34:09.963Z,66.9
2018-03-31T13:34:59.922Z,66.9
2018-03-31T13:35:49.622Z,66.9
2018-03-31T13:36:40.162Z,66.9
2018-03-31T13:37:28.445Z,66.8
2018-03-31T13:38:20.484Z,66.9
2018-03-31T13:39:09.641Z,66.9
2018-03-31T13:39:59.918Z,66.8
2018-03-31T13:40:50.107Z,66.8
2018-03-31T13:41:39.834Z,66.8
2018-03-31T13:42:30.013Z,66.8
2018-03-31T13:43:19.959Z,66.8
2018-03-31T13:44:10.509Z,66.8
2018-03-31T13:45:00.467Z,66.8
2018-03-31T13:45:50.344Z,66.8
2018-03-31T13:46:40.217Z,66.8
2018-03-31T13:47:30.767Z,66.8
2018-03-31T13:48:20.169Z,66.8
2018-03-31T13:49:10.099Z,66.8
2018-03-31T13:50:00.509Z,66.8
2018-03-31T13:50:50.334Z,66.8
2018-03-31T13:51:40.830Z,66.8
2018-03-31T13:52:31.332Z,66.8
2018-03-31T13:53:21.411Z,66.8
2018-03-31T13:54:11.519Z,66.8
2018-03-31T13:55:00.762Z,66.8
2018-03-31T13:55:51.306Z,66.8
2018-03-31T13:56:40.981Z,66.8
2018-03-31T13:57:31.435Z,66.8
2018-03-31T13:58:20.039Z,66.8
2018-03-31T13:59:12.092Z,66.7
2018-03-31T14:00:02.456Z,66.7
2018-03-31T14:00:52.241Z,66.7
2018-03-31T14:01:42.559Z,66.7
2018-03-31T14:02:32.761Z,66.7
2018-03-31T14:03:22.660Z,66.7
2018-03-31T14:04:12.754Z,66.7
2018-03-31T14:05:01.989Z,66.6
2018-03-31T14:05:51.546Z,66.7
2018-03-31T14:06:41.799Z,66.6
2018-03-31T14:07:32.170Z,66.6
2018-03-31T14:08:22.533Z,66.6
2018-03-31T14:09:12.570Z,66.6
2018-03-31T14:10:02.354Z,66.6
2018-03-31T14:10:53.088Z,66.6
2018-03-31T14:11:42.182Z,66.6
2018-03-31T14:12:32.661Z,66.6
2018-03-31T14:13:22.511Z,66.6
2018-03-31T14:14:13.501Z,66.6
2018-03-31T14:15:03.280Z,66.6
2018-03-31T14:15:53.620Z,66.6
2018-03-31T14:16:43.125Z,66.6
2018-03-31T14:17:33.758Z,66.6
2018-03-31T14:18:23.803Z,66.6
2018-03-31T14:19:13.663Z,66.6
2018-03-31T14:20:03.938Z,66.6
2018-03-31T14:20:54.001Z,66.5
2018-03-31T14:21:43.321Z,66.5
2018-03-31T14:22:33.106Z,66.5
2018-03-31T14:23:23.163Z,66.5
2018-03-31T14:24:13.795Z,66.5
2018-03-31T14:25:03.291Z,66.5
2018-03-31T14:25:53.251Z,66.5
2018-03-31T14:26:43.600Z,66.5
2018-03-31T14:27:33.516Z,66.5
2018-03-31T14:28:23.441Z,66.4
2018-03-31T14:29:13.722Z,66.5
2018-03-31T14:30:03.335Z,66.4
2018-03-31T14:30:54.224Z,66.4
2018-03-31T14:31:44.150Z,66.4
2018-03-31T14:32:34.173Z,66.4
2018-03-31T14:33:24.395Z,66.4
2018-03-31T14:34:13.588Z,66.4
2018-03-31T14:35:04.094Z,66.4
2018-03-31T14:35:53.414Z,66.4
2018-03-31T14:36:44.484Z,66.4
2018-03-31T14:37:34.829Z,66.4
2018-03-31T14:38:24.320Z,66.4
2018-03-31T14:39:14.324Z,66.4
2018-03-31T14:40:04.592Z,66.4
2018-03-31T14:40:55.154Z,66.4
2018-03-31T14:41:44.515Z,66.3
2018-03-31T14:42:34.569Z,66.4
2018-03-31T14:43:24.633Z,66.3
2018-03-31T14:44:14.712Z,66.3
2018-03-31T14:45:05.054Z,66.3
2018-03-31T14:45:55.599Z,66.3
2018-03-31T14:46:44.589Z,66.3
2018-03-31T14:47:34.726Z,66.3
2018-03-31T14:48:25.010Z,66.3
2018-03-31T14:49:15.066Z,66.3
2018-03-31T14:50:05.430Z,66.3
2018-03-31T14:50:54.915Z,66.3
2018-03-31T14:51:45.450Z,66.3
2018-03-31T14:52:35.914Z,66.3
2018-03-31T14:53:24.989Z,66.3
2018-03-31T14:54:15.178Z,66.3
2018-03-31T14:55:05.422Z,66.3
2018-03-31T14:55:56.361Z,66.2
2018-03-31T14:56:46.097Z,66.3
2018-03-31T14:57:35.799Z,66.3
2018-03-31T14:58:24.962Z,66.2
2018-03-31T14:59:15.817Z,66.2
2018-03-31T15:00:05.603Z,66.2
2018-03-31T15:00:55.908Z,66.2
2018-03-31T15:01:45.582Z,66.2
2018-03-31T15:02:36.274Z,66.2
2018-03-31T15:03:25.732Z,66.2
2018-03-31T15:04:16.291Z,66.2
2018-03-31T15:05:06.432Z,66.1
2018-03-31T15:05:56.205Z,66.1
2018-03-31T15:06:46.863Z,66.1
2018-03-31T15:07:36.708Z,66.1
2018-03-31T15:08:26.486Z,66.1
2018-03-31T15:09:15.687Z,66.1
2018-03-31T15:10:06.618Z,66.1
2018-03-31T15:10:56.675Z,66.1
2018-03-31T15:11:47.024Z,66.1
2018-03-31T15:12:37.084Z,66.1
2018-03-31T15:13:27.590Z,66.1
2018-03-31T15:14:17.673Z,66.1
2018-03-31T15:15:08.083Z,66.1
2018-03-31T15:15:58.133Z,66.1
2018-03-31T15:16:47.582Z,66.1
2018-03-31T15:17:38.104Z,66.1
2018-03-31T15:18:27.951Z,66
2018-03-31T15:19:18.031Z,66.1
2018-03-31T15:20:07.830Z,66
2018-03-31T15:20:56.128Z,66
2018-03-31T15:21:48.264Z,66
2018-03-31T15:22:37.706Z,66
2018-03-31T15:23:27.584Z,66
2018-03-31T15:24:18.115Z,66
2018-03-31T15:25:08.731Z,66
2018-03-31T15:25:58.251Z,66
2018-03-31T15:26:48.372Z,65.9
2018-03-31T15:27:38.356Z,65.9
2018-03-31T15:28:29.113Z,65.9
2018-03-31T15:29:18.536Z,65.9
2018-03-31T15:30:09.154Z,65.9
2018-03-31T15:30:58.107Z,65.9
2018-03-31T15:31:48.680Z,65.9
2018-03-31T15:32:39.018Z,65.9
2018-03-31T15:33:29.334Z,65.9
2018-03-31T15:34:19.447Z,65.9
2018-03-31T15:35:09.183Z,65.9
2018-03-31T15:35:58.720Z,65.9
2018-03-31T15:36:47.982Z,65.9
2018-03-31T15:37:37.844Z,65.9
2018-03-31T15:38:28.989Z,65.9
2018-03-31T15:39:18.564Z,65.9
2018-03-31T15:40:08.895Z,65.9
2018-03-31T15:40:58.867Z,65.9
2018-03-31T15:41:49.417Z,65.8
2018-03-31T15:42:38.497Z,65.8
2018-03-31T15:43:29.847Z,65.8
2018-03-31T15:44:19.611Z,65.8
2018-03-31T15:45:09.462Z,65.8
2018-03-31T15:45:59.734Z,65.8
2018-03-31T15:46:49.506Z,65.8
2018-03-31T15:47:39.274Z,65.8
2018-03-31T15:48:29.992Z,65.8
2018-03-31T15:49:19.266Z,65.8
2018-03-31T15:50:09.854Z,65.8
2018-03-31T15:50:59.635Z,65.8
2018-03-31T15:51:50.407Z,65.8
2018-03-31T15:52:40.481Z,65.8
2018-03-31T15:53:30.840Z,65.8
2018-03-31T15:54:20.864Z,65.7
2018-03-31T15:55:10.676Z,65.7
2018-03-31T15:56:00.734Z,65.7
2018-03-31T15:56:50.559Z,65.7
2018-03-31T15:57:40.900Z,65.7
2018-03-31T15:58:31.169Z,65.7
2018-03-31T15:59:21.261Z,65.7